Time;durP1;ratioP1;P1;durP2;ratioP2;P2;SDS_P1;SDS_P2;PMS_P1;PMS_P2;Temp;Humidity;BMP_temperature;BMP_pressure;BME280_temperature;BME280_humidity;BME280_pressure;Samples;Min_cycle;Max_cycle;Signal;HPM_P1;HPM_P2
2021/12/02 00:00:05;;;;;;;;;;;;;;;;;;172155;28;1197;-52
2021/12/02 00:00:10;;;;;;;;;;;;;;;;;;171478;28;1684;-53
2021/12/02 00:00:15;;;;;;;;;;;;;;;;;;171961;28;1078;-53
2021/12/02 00:00:21;;;;;;;;;;;;;;;;;;172064;28;928;-52
2021/12/02 00:00:26;;;;;;;;;;;;;;;;;;171972;28;1153;-52
2021/12/02 00:00:31;;;;;;;;;;;;;;;;;;172087;28;885;-53
2021/12/02 00:00:36;;;;;;;;;;;;;;;;;;172035;28;1094;-53
2021/12/02 00:00:41;;;;;;;;;;;;;;;;;;172108;28;1314;-51
2021/12/02 00:00:47;;;;;;;;;;;;;;;;;;172111;28;1354;-52
2021/12/02 00:00:52;;;;;;;;;;;;;;;;;;171364;28;794;-51
2021/12/02 00:00:57;;;;;;;;;;;;;;;;;;171451;28;865;-53
2021/12/02 00:01:02;;;;;;;;;;;;;;;;;;171520;28;4492;-52
2021/12/02 00:01:08;;;;;;;;;;;;;;;;;;171881;28;892;-52
2021/12/02 00:01:13;;;;;;;;;;;;;;;;;;172008;28;1209;-52
2021/12/02 00:01:18;;;;;;;;;;;;;;;;;;172086;28;1023;-51
2021/12/02 00:01:23;;;;;;;;;;;;;;;;;;171960;28;1110;-52
2021/12/02 00:01:29;;;;;;;;;;;;;;;;;;172206;28;1362;-52
2021/12/02 00:01:34;;;;;;;;;;;;;;;;;;172040;28;1087;-53
2021/12/02 00:01:39;;;;;;;;;;;;;;;;;;172035;28;979;-53
2021/12/02 00:01:44;;;;;;;;;;;;;;;;;;172183;28;991;-53
2021/12/02 00:01:49;;;;;;;;;;;;;;;;;;172095;28;1173;-53
2021/12/02 00:01:55;;;;;;;;;;;;;;;;;;172089;28;940;-52
2021/12/02 00:02:00;;;;;;;;;;;;;;;;;;172127;28;1153;-52
2021/12/02 00:02:07;;;;;;;;;;;;;;;;;;172133;28;876;-53
2021/12/02 00:02:12;;;;;;;;;;;;;;;;;;171976;28;1150;-52
2021/12/02 00:02:18;;;;;;;;;;;;;;;;;;172159;28;852;-54
2021/12/02 00:02:23;;;;;;;;;;;;;;;;;;172058;28;1071;-53
2021/12/02 00:02:28;;;;;;;;;;;;;;;;;;172204;28;931;-52
2021/12/02 00:02:36;;;;;;;;;;;;;;;;;;172149;28;1213;-52
2021/12/02 00:02:42;;;;;;;;;;;;;;;;;;172085;28;857;-53
2021/12/02 00:02:47;;;;;;;;;;;;;;;;;;172032;28;1119;-52
2021/12/02 00:02:52;;;;;;;;;;;;;;;;;;172009;28;809;-52
2021/12/02 00:02:57;;;;;;;;;;;;;;;;;;172014;28;1106;-52
2021/12/02 00:03:05;;;;;;;;;;;;;;;;;;172154;28;1007;-51
2021/12/02 00:03:10;;;;;;;;;;;;;;;;;;171844;28;1032;-51
2021/12/02 00:03:15;;;;;;;;;;;;;;;;;;172060;28;798;-53
2021/12/02 00:03:20;;;;;;;;;;;;;;;;;;171751;28;1122;-53
2021/12/02 00:03:26;;;;;;;;;;;;;;;;;;171926;28;905;-52
2021/12/02 00:03:31;;;;;;;;;;;;;;;;;;172021;28;806;-54
2021/12/02 00:03:37;;;;;;;;;;;;;;;;;;171967;28;1296;-52
2021/12/02 00:03:42;;;;;;;;;;;;;;;;;;172050;28;995;-51
2021/12/02 00:03:48;;;;;;;;;;;;;;;;;;172083;28;1201;-53
2021/12/02 00:03:55;;;;;;;;;;;;;;;;;;171974;28;861;-53
2021/12/02 00:04:00;;;;;;;;;;;;;;;;;;172020;28;991;-52
2021/12/02 00:04:06;;;;;;;;;;;;;;;;;;171341;28;862;-51
2021/12/02 00:04:11;;;;;;;;;;;;;;;;;;171858;28;1095;-52
2021/12/02 00:04:16;;;;;;;;;;;;;;;;;;172054;28;801;-52
2021/12/02 00:04:21;;;;;;;;;;;;;;;;;;171958;28;1040;-52
2021/12/02 00:04:27;;;;;;;;;;;;;;;;;;172121;28;876;-52
2021/12/02 00:04:34;;;;;;;;;;;;;;;;;;172027;28;1201;-52
2021/12/02 00:04:40;;;;;;;;;;;;;;;;;;172110;28;813;-52
2021/12/02 00:04:45;;;;;;;;;;;;;;;;;;172017;28;1435;-50
2021/12/02 00:04:50;;;;;;;;;;;;;;;;;;172059;28;1003;-52
2021/12/02 00:04:56;;;;;;;;;;;;;;;;;;172048;28;1216;-53
2021/12/02 00:05:01;;;;;;;;;;;;;;;;;;171597;28;4559;-52
2021/12/02 00:05:06;;;;;;;;;;;;;;;;;;172026;28;1162;-52
2021/12/02 00:05:11;;;;;;;;;;;;;;;;;;172122;28;896;-52
2021/12/02 00:05:16;;;;;;;;;;;;;;;;;;172152;28;1007;-52
2021/12/02 00:05:22;;;;;;;;;;;;;;;;;;171995;28;1286;-51
2021/12/02 00:05:27;;;;;;;;;;;;;;;;;;172254;28;868;-51
2021/12/02 00:05:33;;;;;;;;;;;;;;;;;;172116;28;1142;-53
2021/12/02 00:05:38;;;;;;;;;;;;;;;;;;172061;28;749;-52
2021/12/02 00:05:43;;;;;;;;;;;;;;;;;;172106;28;1225;-52
2021/12/02 00:05:48;;;;;;;;;;;;;;;;;;172183;28;869;-53
2021/12/02 00:05:54;;;;;;;;;;;;;;;;;;172071;28;1157;-52
2021/12/02 00:05:59;;;;;;;;;;;;;;;;;;172151;28;786;-52
2021/12/02 00:06:07;;;;;;;;;;;;;;;;;;171908;28;1078;-53
2021/12/02 00:06:14;;;;;;;;;;;;;;;;;;171403;28;900;-54
2021/12/02 00:06:19;;;;;;;;;;;;;;;;;;171607;28;1134;-52
2021/12/02 00:06:25;;;;;;;;;;;;;;;;;;172061;28;809;-53
2021/12/02 00:06:30;;;;;;;;;;;;;;;;;;172097;28;1207;-52
2021/12/02 00:06:36;;;;;;;;;;;;;;;;;;172026;28;1024;-53
2021/12/02 00:06:42;;;;;;;;;;;;;;;;;;172038;28;1102;-51
2021/12/02 00:06:47;;;;;;;;;;;;;;;;;;172082;28;803;-51
2021/12/02 00:06:52;;;;;;;;;;;;;;;;;;171934;28;1099;-54
2021/12/02 00:06:57;;;;;;;;;;;;;;;;;;172141;28;876;-52
2021/12/02 00:07:04;;;;;;;;;;;;;;;;;;172020;28;1082;-53
2021/12/02 00:07:09;;;;;;;;;;;;;;;;;;171944;28;912;-52
2021/12/02 00:07:14;;;;;;;;;;;;;;;;;;171932;28;1201;-52
2021/12/02 00:07:20;;;;;;;;;;;;;;;;;;171905;28;1233;-53
2021/12/02 00:07:25;;;;;;;;;;;;;;;;;;172074;28;830;-52
2021/12/02 00:07:30;;;;;;;;;;;;;;;;;;172139;28;1174;-52
2021/12/02 00:07:35;;;;;;;;;;;;;;;;;;172079;28;702;-53
2021/12/02 00:07:40;;;;;;;;;;;;;;;;;;172039;28;1161;-52
2021/12/02 00:07:45;;;;;;;;;;;;;;;;;;172113;28;1051;-51
2021/12/02 00:07:51;;;;;;;;;;;;;;;;;;171962;28;1099;-52
2021/12/02 00:07:56;;;;;;;;;;;;;;;;;;172113;28;860;-52
2021/12/02 00:08:01;;;;;;;;;;;;;;;;;;172216;28;865;-51
2021/12/02 00:08:07;;;;;;;;;;;;;;;;;;171908;28;1166;-52
2021/12/02 00:08:12;;;;;;;;;;;;;;;;;;172103;28;924;-52
2021/12/02 00:08:17;;;;;;;;;;;;;;;;;;171595;28;1688;-51
2021/12/02 00:08:22;;;;;;;;;;;;;;;;;;171964;28;825;-52
2021/12/02 00:08:28;;;;;;;;;;;;;;;;;;172153;28;1130;-51
2021/12/02 00:08:33;;;;;;;;;;;;;;;;;;172135;28;813;-52
2021/12/02 00:08:38;;;;;;;;;;;;;;;;;;172035;28;940;-52
2021/12/02 00:08:43;;;;;;;;;;;;;;;;;;172186;28;829;-52
2021/12/02 00:08:49;;;;;;;;;;;;;;;;;;172162;28;948;-53
2021/12/02 00:08:54;;;;;;;;;;;;;;;;;;172035;28;1111;-52
2021/12/02 00:08:59;;;;;;;;;;;;;;;;;;172184;28;889;-52
2021/12/02 00:09:04;;;;;;;;;;;;;;;;;;171593;28;4435;-53
2021/12/02 00:09:10;;;;;;;;;;;;;;;;;;171997;28;798;-51
2021/12/02 00:09:15;;;;;;;;;;;;;;;;;;172150;28;1153;-51
2021/12/02 00:09:20;;;;;;;;;;;;;;;;;;172052;28;939;-52
2021/12/02 00:09:25;;;;;;;;;;;;;;;;;;172106;28;1099;-53
2021/12/02 00:09:31;;;;;;;;;;;;;;;;;;172180;28;916;-52
2021/12/02 00:09:37;;;;;;;;;;;;;;;;;;172075;28;837;-53
2021/12/02 00:09:42;;;;;;;;;;;;;;;;;;172231;28;848;-51
2021/12/02 00:09:47;;;;;;;;;;;;;;;;;;172180;28;583;-51
2021/12/02 00:09:54;;;;;;;;;;;;;;;;;;172011;28;1158;-53
2021/12/02 00:10:01;;;;;;;;;;;;;;;;;;172159;28;840;-52
2021/12/02 00:10:06;;;;;;;;;;;;;;;;;;171410;28;1563;-53
2021/12/02 00:10:11;;;;;;;;;;;;;;;;;;171434;28;846;-53
2021/12/02 00:10:17;;;;;;;;;;;;;;;;;;172066;28;1108;-52
2021/12/02 00:10:27;;;;;;;;;;;;;;;;;;171993;28;845;-52
2021/12/02 00:10:34;;;;;;;;;;;;;;;;;;172194;28;893;-52
2021/12/02 00:10:41;;;;;;;;;;;;;;;;;;172077;28;1062;-52
2021/12/02 00:10:46;;;;;;;;;;;;;;;;;;172154;28;833;-52
2021/12/02 00:10:51;;;;;;;;;;;;;;;;;;172030;28;1169;-52
2021/12/02 00:10:56;;;;;;;;;;;;;;;;;;172188;28;868;-52
2021/12/02 00:11:01;;;;;;;;;;;;;;;;;;172013;28;1213;-52
2021/12/02 00:11:06;;;;;;;;;;;;;;;;;;172040;28;857;-52
2021/12/02 00:11:13;;;;;;;;;;;;;;;;;;172013;28;1101;-51
2021/12/02 00:11:19;;;;;;;;;;;;;;;;;;172117;28;1062;-53
2021/12/02 00:11:24;;;;;;;;;;;;;;;;;;172029;28;1091;-52
2021/12/02 00:11:30;;;;;;;;;;;;;;;;;;172197;28;817;-52
2021/12/02 00:11:35;;;;;;;;;;;;;;;;;;172109;28;1166;-52
2021/12/02 00:11:40;;;;;;;;;;;;;;;;;;172129;28;889;-53
2021/12/02 00:11:45;;;;;;;;;;;;;;;;;;172150;28;995;-51
2021/12/02 00:11:50;;;;;;;;;;;;;;;;;;171927;28;1118;-51
2021/12/02 00:11:56;;;;;;;;;;;;;;;;;;172158;28;1054;-51
2021/12/02 00:12:01;;;;;;;;;;;;;;;;;;172108;28;1226;-53
2021/12/02 00:12:06;;;;;;;;;;;;;;;;;;171946;28;810;-52
2021/12/02 00:12:12;;;;;;;;;;;;;;;;;;172123;28;1081;-52
2021/12/02 00:12:17;;;;;;;;;;;;;;;;;;172065;28;790;-51
2021/12/02 00:12:22;;;;;;;;;;;;;;;;;;172017;28;1010;-53
2021/12/02 00:12:27;;;;;;;;;;;;;;;;;;172197;28;857;-52
2021/12/02 00:12:33;;;;;;;;;;;;;;;;;;172178;28;889;-53
2021/12/02 00:12:38;;;;;;;;;;;;;;;;;;172107;28;912;-53
2021/12/02 00:12:44;;;;;;;;;;;;;;;;;;172174;28;810;-53
2021/12/02 00:12:52;;;;;;;;;;;;;;;;;;172011;28;1339;-53
2021/12/02 00:12:58;;;;;;;;;;;;;;;;;;172124;28;1134;-52
2021/12/02 00:13:03;;;;;;;;;;;;;;;;;;171633;28;4468;-52
2021/12/02 00:13:09;;;;;;;;;;;;;;;;;;171818;28;1165;-53
2021/12/02 00:13:15;;;;;;;;;;;;;;;;;;172088;28;884;-50
2021/12/02 00:13:26;;;;;;;;;;;;;;;;;;171920;28;770;-52
2021/12/02 00:13:38;;;;;;;;;;;;;;;;;;172129;28;893;-52
2021/12/02 00:13:57;;;;;;;;;;;;;;;;;;172122;28;821;-51
2021/12/02 00:14:09;;;;;;;;;;;;;;;;;;172018;28;873;-53
2021/12/02 00:14:21;;;;;;;;;;;;;;;;;;172060;28;850;-52
2021/12/02 00:14:28;;;;;;;;;;;;;;;;;;171982;28;940;-52
2021/12/02 00:14:47;;;;;;;;;;;;;;;;;;171869;28;1150;-53
2021/12/02 00:14:53;;;;;;;;;;;;;;;;;;171947;28;901;-53
2021/12/02 00:15:05;;;;;;;;;;;;;;;;;;172039;28;1253;-53
2021/12/02 00:15:18;;;;;;;;;;;;;;;;;;170916;28;1688;-52
2021/12/02 00:15:28;;;;;;;;;;;;;;;;;;172033;28;888;-51
2021/12/02 00:15:43;;;;;;;;;;;;;;;;;;172076;28;1154;-52
2021/12/02 00:15:55;;;;;;;;;;;;;;;;;;172070;28;884;-51
2021/12/02 00:16:10;;;;;;;;;;;;;;;;;;172003;28;993;-52
2021/12/02 00:16:22;;;;;;;;;;;;;;;;;;172113;28;861;-52
2021/12/02 00:16:51;;;;;;;;;;;;;;;;;;172135;28;881;-53
2021/12/02 00:17:09;;;;;;;;;;;;;;;;;;170956;28;5641;-53
2021/12/02 00:17:25;;;;;;;;;;;;;;;;;;172052;28;1138;-53
2021/12/02 00:17:34;;;;;;;;;;;;;;;;;;172038;28;1146;-52
2021/12/02 00:17:41;;;;;;;;;;;;;;;;;;172048;28;1141;-52
2021/12/02 00:17:53;;;;;;;;;;;;;;;;;;172070;28;841;-51
2021/12/02 00:21:07;;;;;;;;;;;;;;;;;;171452;28;722;-53
2021/12/02 00:21:17;;;;;;;;;;;;;;;;;;171899;28;4319;-53
2021/12/02 00:21:23;;;;;;;;;;;;;;;;;;172661;28;1023;-53
2021/12/02 00:21:28;;;;;;;;;;;;;;;;;;171992;28;988;-51
2021/12/02 00:21:34;;;;;;;;;;;;;;;;;;171357;28;893;-51
2021/12/02 00:21:41;;;;;;;;;;;;;;;;;;171936;28;985;-51
2021/12/02 00:21:47;;;;;;;;;;;;;;;;;;171950;28;886;-52
2021/12/02 00:21:54;;;;;;;;;;;;;;;;;;172065;28;822;-53
2021/12/02 00:22:01;;;;;;;;;;;;;;;;;;171907;28;1147;-51
2021/12/02 00:22:06;;;;;;;;;;;;;;;;;;171332;28;865;-52
2021/12/02 00:22:11;;;;;;;;;;;;;;;;;;171279;28;1228;-52
2021/12/02 00:22:17;;;;;;;;;;;;;;;;;;171247;28;794;-53
2021/12/02 00:22:24;;;;;;;;;;;;;;;;;;171213;28;1139;-53
2021/12/02 00:22:29;;;;;;;;;;;;;;;;;;170900;28;1519;-53
2021/12/02 00:22:40;;;;;;;;;;;;;;;;;;171230;28;1155;-52
2021/12/02 00:23:03;;;;;;;;;;;;;;;;;;171273;28;1092;-52
2021/12/02 00:23:28;;;;;;;;;;;;;;;;;;171242;28;1155;-53
2021/12/02 00:23:34;;;;;;;;;;;;;;;;;;170685;28;1123;-52
2021/12/02 00:23:45;;;;;;;;;;;;;;;;;;171459;28;896;-52
2021/12/02 00:23:52;;;;;;;;;;;;;;;;;;171311;28;822;-52
2021/12/02 00:23:57;;;;;;;;;;;;;;;;;;171913;28;1047;-52
2021/12/02 00:24:03;;;;;;;;;;;;;;;;;;171860;28;923;-50
2021/12/02 00:24:09;;;;;;;;;;;;;;;;;;171957;28;1224;-52
2021/12/02 00:24:14;;;;;;;;;;;;;;;;;;172041;28;999;-52
2021/12/02 00:24:20;;;;;;;;;;;;;;;;;;171841;28;1162;-52
2021/12/02 00:24:25;;;;;;;;;;;;;;;;;;172073;28;893;-52
2021/12/02 00:24:33;;;;;;;;;;;;;;;;;;172046;28;830;-53
2021/12/02 00:24:39;;;;;;;;;;;;;;;;;;171440;28;969;-53
2021/12/02 00:24:46;;;;;;;;;;;;;;;;;;171502;28;1409;-51
2021/12/02 00:24:53;;;;;;;;;;;;;;;;;;171925;28;794;-52
2021/12/02 00:25:00;;;;;;;;;;;;;;;;;;171995;28;1103;-52
2021/12/02 00:25:05;;;;;;;;;;;;;;;;;;170803;28;4509;-53
2021/12/02 00:25:10;;;;;;;;;;;;;;;;;;172506;28;1111;-52
2021/12/02 00:25:16;;;;;;;;;;;;;;;;;;172672;28;893;-52
2021/12/02 00:25:21;;;;;;;;;;;;;;;;;;172543;28;1095;-52
2021/12/02 00:25:26;;;;;;;;;;;;;;;;;;171985;28;893;-52
2021/12/02 00:25:31;;;;;;;;;;;;;;;;;;171935;28;1173;-52
2021/12/02 00:25:36;;;;;;;;;;;;;;;;;;172021;28;881;-52
2021/12/02 00:25:41;;;;;;;;;;;;;;;;;;172133;28;575;-52
2021/12/02 00:25:47;;;;;;;;;;;;;;;;;;171943;28;885;-52
2021/12/02 00:25:52;;;;;;;;;;;;;;;;;;172051;28;901;-53
2021/12/02 00:25:57;;;;;;;;;;;;;;;;;;171464;28;1179;-52
2021/12/02 00:26:04;;;;;;;;;;;;;;;;;;171295;28;794;-52
2021/12/02 00:26:11;;;;;;;;;;;;;;;;;;170900;28;1366;-52
2021/12/02 00:26:17;;;;;;;;;;;;;;;;;;171310;28;972;-54
2021/12/02 00:26:22;;;;;;;;;;;;;;;;;;172048;28;1230;-51
2021/12/02 00:26:28;;;;;;;;;;;;;;;;;;172034;28;1015;-49
2021/12/02 00:26:34;;;;;;;;;;;;;;;;;;171857;28;1178;-52
2021/12/02 00:26:39;;;;;;;;;;;;;;;;;;171986;28;983;-52
2021/12/02 00:26:45;;;;;;;;;;;;;;;;;;171903;28;1090;-52
2021/12/02 00:26:51;;;;;;;;;;;;;;;;;;171325;28;814;-52
2021/12/02 00:26:56;;;;;;;;;;;;;;;;;;171355;28;1159;-52
2021/12/02 00:27:03;;;;;;;;;;;;;;;;;;171301;28;1012;-53
2021/12/02 00:27:09;;;;;;;;;;;;;;;;;;171296;28;1182;-51
2021/12/02 00:27:14;;;;;;;;;;;;;;;;;;171272;28;822;-53
2021/12/02 00:27:19;;;;;;;;;;;;;;;;;;171874;28;1110;-51
2021/12/02 00:27:26;;;;;;;;;;;;;;;;;;172117;28;872;-52
2021/12/02 00:27:31;;;;;;;;;;;;;;;;;;171890;28;1267;-53
2021/12/02 00:27:36;;;;;;;;;;;;;;;;;;170048;29;1866;-53
2021/12/02 00:27:41;;;;;;;;;;;;;;;;;;170722;29;1223;-53
2021/12/02 00:27:46;;;;;;;;;;;;;;;;;;170663;29;842;-52
2021/12/02 00:27:52;;;;;;;;;;;;;;;;;;170693;29;1096;-53
2021/12/02 00:27:58;;;;;;;;;;;;;;;;;;172145;28;952;-52
2021/12/02 00:28:03;;;;;;;;;;;;;;;;;;170569;29;1063;-53
2021/12/02 00:28:08;;;;;;;;;;;;;;;;;;170663;28;1869;-51
2021/12/02 00:28:13;;;;;;;;;;;;;;;;;;170711;29;790;-52
2021/12/02 00:28:18;;;;;;;;;;;;;;;;;;171082;28;1181;-52
2021/12/02 00:28:25;;;;;;;;;;;;;;;;;;170778;28;839;-52
2021/12/02 00:28:30;;;;;;;;;;;;;;;;;;171273;28;1171;-51
2021/12/02 00:28:36;;;;;;;;;;;;;;;;;;171346;28;925;-51
2021/12/02 00:28:41;;;;;;;;;;;;;;;;;;171390;28;1174;-53
2021/12/02 00:28:50;;;;;;;;;;;;;;;;;;171318;28;1004;-53
2021/12/02 00:28:56;;;;;;;;;;;;;;;;;;171394;28;1238;-51
2021/12/02 00:29:01;;;;;;;;;;;;;;;;;;171244;28;1122;-51
2021/12/02 00:29:07;;;;;;;;;;;;;;;;;;170790;28;4468;-52
2021/12/02 00:29:12;;;;;;;;;;;;;;;;;;171318;28;960;-52
2021/12/02 00:29:19;;;;;;;;;;;;;;;;;;171225;28;1163;-52
2021/12/02 00:29:24;;;;;;;;;;;;;;;;;;171483;28;750;-52
2021/12/02 00:29:29;;;;;;;;;;;;;;;;;;171292;28;1179;-53
2021/12/02 00:29:35;;;;;;;;;;;;;;;;;;171329;28;992;-52
2021/12/02 00:29:40;;;;;;;;;;;;;;;;;;171404;28;1155;-53
2021/12/02 00:29:45;;;;;;;;;;;;;;;;;;171327;28;1020;-53
2021/12/02 00:29:51;;;;;;;;;;;;;;;;;;171230;28;1071;-53
2021/12/02 00:29:57;;;;;;;;;;;;;;;;;;171384;28;1000;-52
2021/12/02 00:30:02;;;;;;;;;;;;;;;;;;171176;28;1071;-52
2021/12/02 00:30:08;;;;;;;;;;;;;;;;;;170889;28;1466;-53
2021/12/02 00:30:13;;;;;;;;;;;;;;;;;;171244;28;1003;-52
2021/12/02 00:30:18;;;;;;;;;;;;;;;;;;171985;28;904;-53
2021/12/02 00:30:23;;;;;;;;;;;;;;;;;;171577;28;868;-53
2021/12/02 00:30:29;;;;;;;;;;;;;;;;;;171555;28;1548;-53
2021/12/02 00:30:34;;;;;;;;;;;;;;;;;;170609;29;899;-53
2021/12/02 00:30:39;;;;;;;;;;;;;;;;;;171332;28;1155;-52
2021/12/02 00:30:44;;;;;;;;;;;;;;;;;;171320;28;989;-52
2021/12/02 00:30:49;;;;;;;;;;;;;;;;;;171201;28;1130;-53
2021/12/02 00:30:58;;;;;;;;;;;;;;;;;;171424;28;862;-53
2021/12/02 00:31:03;;;;;;;;;;;;;;;;;;171187;28;1325;-51
2021/12/02 00:31:11;;;;;;;;;;;;;;;;;;171337;28;857;-52
2021/12/02 00:31:16;;;;;;;;;;;;;;;;;;171310;28;1089;-52
2021/12/02 00:31:22;;;;;;;;;;;;;;;;;;171369;28;873;-52
2021/12/02 00:31:29;;;;;;;;;;;;;;;;;;171342;28;1152;-51
2021/12/02 00:31:36;;;;;;;;;;;;;;;;;;171327;28;786;-52
2021/12/02 00:31:42;;;;;;;;;;;;;;;;;;170715;29;940;-52
2021/12/02 00:31:48;;;;;;;;;;;;;;;;;;171200;28;1035;-53
2021/12/02 00:31:53;;;;;;;;;;;;;;;;;;171228;28;1345;-53
2021/12/02 00:32:01;;;;;;;;;;;;;;;;;;170746;29;937;-53
2021/12/02 00:32:07;;;;;;;;;;;;;;;;;;170539;29;968;-52
2021/12/02 00:32:12;;;;;;;;;;;;;;;;;;170560;28;1108;-52
2021/12/02 00:32:17;;;;;;;;;;;;;;;;;;170546;29;885;-52
2021/12/02 00:32:24;;;;;;;;;;;;;;;;;;171326;28;1100;-52
2021/12/02 00:32:29;;;;;;;;;;;;;;;;;;171352;28;1027;-52
2021/12/02 00:32:35;;;;;;;;;;;;;;;;;;171865;28;1099;-52
2021/12/02 00:32:40;;;;;;;;;;;;;;;;;;170763;28;1925;-52
2021/12/02 00:32:45;;;;;;;;;;;;;;;;;;171294;28;1090;-53
2021/12/02 00:32:51;;;;;;;;;;;;;;;;;;170731;29;886;-53
2021/12/02 00:32:56;;;;;;;;;;;;;;;;;;170758;29;1043;-51
2021/12/02 00:33:01;;;;;;;;;;;;;;;;;;170472;28;1215;-53
2021/12/02 00:33:06;;;;;;;;;;;;;;;;;;170210;28;4506;-52
2021/12/02 00:33:12;;;;;;;;;;;;;;;;;;171999;28;1150;-52
2021/12/02 00:33:17;;;;;;;;;;;;;;;;;;170415;29;1206;-52
2021/12/02 00:33:24;;;;;;;;;;;;;;;;;;172044;28;1162;-51
2021/12/02 00:33:29;;;;;;;;;;;;;;;;;;171884;28;797;-53
2021/12/02 00:33:35;;;;;;;;;;;;;;;;;;171846;28;1126;-52
2021/12/02 00:33:40;;;;;;;;;;;;;;;;;;172018;28;806;-51
2021/12/02 00:33:46;;;;;;;;;;;;;;;;;;171992;28;1107;-52
2021/12/02 00:33:52;;;;;;;;;;;;;;;;;;170745;29;889;-53
2021/12/02 00:33:59;;;;;;;;;;;;;;;;;;170669;29;1139;-52
2021/12/02 00:34:05;;;;;;;;;;;;;;;;;;170606;29;798;-53
2021/12/02 00:34:10;;;;;;;;;;;;;;;;;;170605;29;1147;-51
2021/12/02 00:34:15;;;;;;;;;;;;;;;;;;170693;29;818;-53
2021/12/02 00:34:22;;;;;;;;;;;;;;;;;;170707;29;1159;-53
2021/12/02 00:34:27;;;;;;;;;;;;;;;;;;170722;29;877;-51
2021/12/02 00:34:33;;;;;;;;;;;;;;;;;;170629;29;959;-52
2021/12/02 00:34:42;;;;;;;;;;;;;;;;;;170751;29;853;-53
2021/12/02 00:34:47;;;;;;;;;;;;;;;;;;170462;28;1464;-52
2021/12/02 00:34:52;;;;;;;;;;;;;;;;;;171255;28;857;-52
2021/12/02 00:34:58;;;;;;;;;;;;;;;;;;171360;28;1202;-52
2021/12/02 00:35:03;;;;;;;;;;;;;;;;;;171136;28;944;-52
2021/12/02 00:35:08;;;;;;;;;;;;;;;;;;171243;28;1079;-52
2021/12/02 00:35:14;;;;;;;;;;;;;;;;;;171433;28;1474;-53
2021/12/02 00:35:19;;;;;;;;;;;;;;;;;;171748;28;1131;-52
2021/12/02 00:35:24;;;;;;;;;;;;;;;;;;171415;28;783;-52
2021/12/02 00:35:30;;;;;;;;;;;;;;;;;;171359;28;826;-53
2021/12/02 00:35:35;;;;;;;;;;;;;;;;;;171348;28;893;-52
2021/12/02 00:35:41;;;;;;;;;;;;;;;;;;171465;28;813;-52
2021/12/02 00:35:46;;;;;;;;;;;;;;;;;;171874;28;1103;-51
2021/12/02 00:35:51;;;;;;;;;;;;;;;;;;172519;28;885;-51
2021/12/02 00:35:56;;;;;;;;;;;;;;;;;;172676;28;1178;-52
2021/12/02 00:36:02;;;;;;;;;;;;;;;;;;172583;28;921;-52
2021/12/02 00:36:07;;;;;;;;;;;;;;;;;;172567;28;1173;-53
2021/12/02 00:36:13;;;;;;;;;;;;;;;;;;172716;28;806;-52
2021/12/02 00:36:19;;;;;;;;;;;;;;;;;;172539;28;1165;-53
2021/12/02 00:36:25;;;;;;;;;;;;;;;;;;172788;28;838;-53
2021/12/02 00:36:31;;;;;;;;;;;;;;;;;;172646;28;1098;-53
2021/12/02 00:36:37;;;;;;;;;;;;;;;;;;172761;28;805;-52
2021/12/02 00:36:42;;;;;;;;;;;;;;;;;;172650;28;1608;-53
2021/12/02 00:36:48;;;;;;;;;;;;;;;;;;172523;28;862;-52
2021/12/02 00:36:53;;;;;;;;;;;;;;;;;;172737;28;1228;-53
2021/12/02 00:36:58;;;;;;;;;;;;;;;;;;171535;28;4440;-51
2021/12/02 00:37:03;;;;;;;;;;;;;;;;;;171213;28;1365;-52
2021/12/02 00:37:08;;;;;;;;;;;;;;;;;;171186;28;1127;-53
2021/12/02 00:37:14;;;;;;;;;;;;;;;;;;171278;28;754;-53
2021/12/02 00:37:19;;;;;;;;;;;;;;;;;;171225;28;1170;-52
2021/12/02 00:37:24;;;;;;;;;;;;;;;;;;170685;29;638;-53
2021/12/02 00:37:31;;;;;;;;;;;;;;;;;;170660;29;1088;-50
2021/12/02 00:37:36;;;;;;;;;;;;;;;;;;170644;29;814;-53
2021/12/02 00:37:41;;;;;;;;;;;;;;;;;;170694;29;1151;-53
2021/12/02 00:37:47;;;;;;;;;;;;;;;;;;170162;29;1483;-53
2021/12/02 00:37:52;;;;;;;;;;;;;;;;;;170652;29;1159;-53
2021/12/02 00:37:57;;;;;;;;;;;;;;;;;;170798;29;826;-53
2021/12/02 00:38:02;;;;;;;;;;;;;;;;;;169875;29;1008;-53
2021/12/02 00:38:08;;;;;;;;;;;;;;;;;;169934;29;1163;-53
2021/12/02 00:38:13;;;;;;;;;;;;;;;;;;170057;29;857;-53
2021/12/02 00:38:19;;;;;;;;;;;;;;;;;;170689;29;1151;-53
2021/12/02 00:38:24;;;;;;;;;;;;;;;;;;170739;29;851;-52
2021/12/02 00:38:29;;;;;;;;;;;;;;;;;;170557;29;1035;-53
2021/12/02 00:38:35;;;;;;;;;;;;;;;;;;170413;29;1527;-53
2021/12/02 00:38:40;;;;;;;;;;;;;;;;;;170552;29;1792;-53
2021/12/02 00:38:46;;;;;;;;;;;;;;;;;;170646;29;830;-52
2021/12/02 00:38:52;;;;;;;;;;;;;;;;;;170635;29;1072;-53
2021/12/02 00:38:57;;;;;;;;;;;;;;;;;;170664;29;1012;-53
2021/12/02 00:39:07;;;;;;;;;;;;;;;;;;170500;29;1075;-52
2021/12/02 00:39:13;;;;;;;;;;;;;;;;;;170690;29;909;-53
2021/12/02 00:39:19;;;;;;;;;;;;;;;;;;170647;29;1124;-52
2021/12/02 00:39:24;;;;;;;;;;;;;;;;;;170755;29;791;-52
2021/12/02 00:39:29;;;;;;;;;;;;;;;;;;170619;29;1192;-51
2021/12/02 00:39:35;;;;;;;;;;;;;;;;;;170666;29;806;-51
2021/12/02 00:39:40;;;;;;;;;;;;;;;;;;170699;29;1131;-52
2021/12/02 00:39:45;;;;;;;;;;;;;;;;;;170654;29;857;-53
2021/12/02 00:39:51;;;;;;;;;;;;;;;;;;170674;29;1191;-52
2021/12/02 00:39:56;;;;;;;;;;;;;;;;;;171116;28;853;-53
2021/12/02 00:40:01;;;;;;;;;;;;;;;;;;171587;28;943;-53
2021/12/02 00:40:06;;;;;;;;;;;;;;;;;;171133;28;988;-53
2021/12/02 00:40:12;;;;;;;;;;;;;;;;;;171295;28;915;-52
2021/12/02 00:40:17;;;;;;;;;;;;;;;;;;171188;28;1317;-52
2021/12/02 00:40:22;;;;;;;;;;;;;;;;;;171373;28;1430;-53
2021/12/02 00:40:27;;;;;;;;;;;;;;;;;;171304;28;1221;-50
2021/12/02 00:40:35;;;;;;;;;;;;;;;;;;171283;28;869;-52
2021/12/02 00:40:40;;;;;;;;;;;;;;;;;;171301;28;1175;-53
2021/12/02 00:40:45;;;;;;;;;;;;;;;;;;171224;28;921;-53
2021/12/02 00:40:51;;;;;;;;;;;;;;;;;;171343;28;1158;-52
2021/12/02 00:40:56;;;;;;;;;;;;;;;;;;171408;28;810;-53
2021/12/02 00:41:01;;;;;;;;;;;;;;;;;;170702;28;4455;-51
2021/12/02 00:41:13;;;;;;;;;;;;;;;;;;171333;28;857;-52
2021/12/02 00:41:19;;;;;;;;;;;;;;;;;;170600;28;894;-52
2021/12/02 00:41:25;;;;;;;;;;;;;;;;;;170865;28;1179;-52
2021/12/02 00:41:30;;;;;;;;;;;;;;;;;;170725;28;900;-51
2021/12/02 00:41:35;;;;;;;;;;;;;;;;;;171264;28;1103;-52
2021/12/02 00:41:41;;;;;;;;;;;;;;;;;;171433;28;932;-52
2021/12/02 00:41:46;;;;;;;;;;;;;;;;;;171221;28;924;-52
2021/12/02 00:41:51;;;;;;;;;;;;;;;;;;171374;28;1111;-52
2021/12/02 00:41:56;;;;;;;;;;;;;;;;;;171377;28;905;-51
2021/12/02 00:42:01;;;;;;;;;;;;;;;;;;171787;28;1079;-52
2021/12/02 00:42:07;;;;;;;;;;;;;;;;;;172588;28;825;-53
2021/12/02 00:42:12;;;;;;;;;;;;;;;;;;172507;28;1228;-53
2021/12/02 00:42:18;;;;;;;;;;;;;;;;;;172600;28;940;-53
2021/12/02 00:42:23;;;;;;;;;;;;;;;;;;172661;28;1186;-52
2021/12/02 00:42:28;;;;;;;;;;;;;;;;;;172008;28;814;-52
2021/12/02 00:42:33;;;;;;;;;;;;;;;;;;172014;28;818;-52
2021/12/02 00:42:39;;;;;;;;;;;;;;;;;;172026;28;1233;-52
2021/12/02 00:42:44;;;;;;;;;;;;;;;;;;171953;28;829;-51
2021/12/02 00:42:50;;;;;;;;;;;;;;;;;;171465;28;1461;-53
2021/12/02 00:42:55;;;;;;;;;;;;;;;;;;172047;28;869;-52
2021/12/02 00:43:01;;;;;;;;;;;;;;;;;;171711;28;1175;-52
2021/12/02 00:43:06;;;;;;;;;;;;;;;;;;171596;28;1913;-51
2021/12/02 00:43:12;;;;;;;;;;;;;;;;;;171972;28;1197;-52
2021/12/02 00:43:17;;;;;;;;;;;;;;;;;;171229;28;825;-51
2021/12/02 00:43:22;;;;;;;;;;;;;;;;;;171390;28;1159;-53
2021/12/02 00:43:27;;;;;;;;;;;;;;;;;;171355;28;833;-51
2021/12/02 00:43:33;;;;;;;;;;;;;;;;;;171253;28;1083;-52
2021/12/02 00:43:38;;;;;;;;;;;;;;;;;;171348;28;1253;-52
2021/12/02 00:43:44;;;;;;;;;;;;;;;;;;171398;28;838;-53
2021/12/02 00:43:49;;;;;;;;;;;;;;;;;;171325;28;1108;-51
2021/12/02 00:43:55;;;;;;;;;;;;;;;;;;171456;28;810;-51
2021/12/02 00:44:00;;;;;;;;;;;;;;;;;;171187;28;1191;-53
2021/12/02 00:44:06;;;;;;;;;;;;;;;;;;171320;28;909;-52
2021/12/02 00:44:11;;;;;;;;;;;;;;;;;;171354;28;1138;-52
2021/12/02 00:44:18;;;;;;;;;;;;;;;;;;171263;28;979;-51
2021/12/02 00:44:23;;;;;;;;;;;;;;;;;;171361;28;1143;-52
2021/12/02 00:44:28;;;;;;;;;;;;;;;;;;171936;28;750;-50
2021/12/02 00:44:34;;;;;;;;;;;;;;;;;;171973;28;1040;-51
2021/12/02 00:44:39;;;;;;;;;;;;;;;;;;171415;28;794;-52
2021/12/02 00:44:45;;;;;;;;;;;;;;;;;;171216;28;988;-52
2021/12/02 00:44:50;;;;;;;;;;;;;;;;;;170589;29;1275;-53
2021/12/02 00:44:56;;;;;;;;;;;;;;;;;;170782;29;814;-53
2021/12/02 00:45:02;;;;;;;;;;;;;;;;;;169773;28;4220;-52
2021/12/02 00:45:07;;;;;;;;;;;;;;;;;;170224;29;1641;-51
2021/12/02 00:45:12;;;;;;;;;;;;;;;;;;170585;29;980;-52
2021/12/02 00:45:17;;;;;;;;;;;;;;;;;;171275;28;893;-52
2021/12/02 00:45:23;;;;;;;;;;;;;;;;;;171340;28;1155;-52
2021/12/02 00:45:28;;;;;;;;;;;;;;;;;;171421;28;710;-51
2021/12/02 00:45:33;;;;;;;;;;;;;;;;;;171348;28;1178;-52
2021/12/02 00:45:39;;;;;;;;;;;;;;;;;;171378;28;862;-52
2021/12/02 00:45:45;;;;;;;;;;;;;;;;;;171264;28;949;-54
2021/12/02 00:45:50;;;;;;;;;;;;;;;;;;171369;28;834;-53
2021/12/02 00:45:55;;;;;;;;;;;;;;;;;;171365;28;1167;-52
2021/12/02 00:46:01;;;;;;;;;;;;;;;;;;171217;28;1002;-53
2021/12/02 00:46:08;;;;;;;;;;;;;;;;;;171304;28;870;-53
2021/12/02 00:46:14;;;;;;;;;;;;;;;;;;171288;28;802;-52
2021/12/02 00:46:20;;;;;;;;;;;;;;;;;;171361;28;1187;-51
2021/12/02 00:46:26;;;;;;;;;;;;;;;;;;171437;28;869;-53
2021/12/02 00:46:32;;;;;;;;;;;;;;;;;;171241;28;1135;-52
2021/12/02 00:46:37;;;;;;;;;;;;;;;;;;171467;28;845;-53
2021/12/02 00:46:44;;;;;;;;;;;;;;;;;;171920;28;1229;-52